Terminal Aerodrome Forecast
Issued by NWS Memphis, TN

Home | Current Version | Previous Version | Text Only | Print | Product List | Glossary On
Versions: 1 2 3 4 5 6 7 8 9 10 11 12 13 14 15 16 17
000
FTUS44 KMEG 171130
TAFJBR
TAF
KJBR 171130Z 1712/1812 24008KT P6SM VCSH SCT020 BKN070
      TEMPO 1712/1715 BKN020
     FM171500 23013G20KT P6SM VCTS SCT025CB BKN035
      TEMPO 1715/1719 6SM SHRA BKN025
     FM172100 24011KT P6SM FEW040 SCT250
     FM180100 23005KT P6SM SCT250
     FM180800 32004KT P6SM FEW250=

USA.gov is the U.S. government's official web portal to all federal, state and local government web resources and services.